Time;durP1;ratioP1;P1;durP2;ratioP2;P2;SDS_P1;SDS_P2;PMS_P1;PMS_P2;Temp;Humidity;BMP_temperature;BMP_pressure;BME280_temperature;BME280_humidity;BME280_pressure;Samples;Min_cycle;Max_cycle;Signal;HPM_P1;HPM_P2
2023/05/29 00:04:10;;;;;;;5.40;4.50;;;;;;;12.43;69.02;100242.69;10417447;28;20053;-69
2023/05/29 00:09:12;;;;;;;4.93;4.45;;;;;;;12.42;69.38;100240.97;10415644;28;20045;-70
2023/05/29 00:14:14;;;;;;;5.65;4.88;;;;;;;12.20;70.43;100250.56;10416524;28;20091;-70
2023/05/29 00:19:16;;;;;;;4.75;4.18;;;;;;;12.27;70.44;100241.53;10419513;28;20041;-70
2023/05/29 00:24:19;;;;;;;4.95;4.10;;;;;;;12.26;69.72;100238.03;10426219;28;20557;-69
2023/05/29 00:29:22;;;;;;;5.10;4.60;;;;;;;12.30;69.76;100228.22;10423334;28;20041;-69
2023/05/29 00:34:23;;;;;;;5.55;4.40;;;;;;;11.94;70.24;100227.72;10421989;28;20081;-68
2023/05/29 00:39:25;;;;;;;4.88;3.30;;;;;;;11.81;71.13;100235.16;10423008;28;20580;-68
2023/05/29 00:44:27;;;;;;;4.45;4.05;;;;;;;11.74;71.27;100223.13;10422277;28;20049;-69
2023/05/29 00:49:29;;;;;;;4.70;4.28;;;;;;;11.75;71.92;100219.56;10423256;28;20065;-69
2023/05/29 00:54:31;;;;;;;4.32;3.92;;;;;;;11.65;72.86;100223.44;10421994;28;20529;-69
2023/05/29 00:59:34;;;;;;;6.28;4.10;;;;;;;11.71;72.50;100228.47;10422751;28;20549;-69
2023/05/29 01:04:36;;;;;;;4.47;4.07;;;;;;;11.58;73.31;100241.19;10420795;28;20149;-69
2023/05/29 01:09:38;;;;;;;4.30;3.80;;;;;;;11.52;73.20;100221.19;10421053;28;20111;-69
2023/05/29 01:14:57;;;;;;;5.15;4.03;;;;;;;11.33;73.83;100225.31;10421719;28;20491;-69
2023/05/29 01:20:27;;;;;;;4.25;3.85;;;;;;;11.38;73.85;100223.41;10422404;28;20087;-69
2023/05/29 01:25:49;;;;;;;4.93;3.55;;;;;;;11.02;76.15;100220.16;10421786;28;20411;-69
2023/05/29 01:30:51;;;;;;;5.72;4.38;;;;;;;10.77;76.82;100226.16;10422278;28;20044;-69
2023/05/29 01:35:53;;;;;;;4.15;3.08;;;;;;;10.67;77.90;100223.81;10419276;28;20051;-69
2023/05/29 01:40:58;;;;;;;4.63;4.22;;;;;;;10.75;77.76;100230.59;10419536;28;20045;-69
2023/05/29 01:46:00;;;;;;;3.67;3.38;;;;;;;10.87;77.25;100229.38;10419346;28;20041;-69
2023/05/29 01:51:03;;;;;;;3.60;3.30;;;;;;;10.96;77.23;100229.09;10421693;28;20050;-69
2023/05/29 01:56:09;;;;;;;3.97;3.50;;;;;;;10.81;77.75;100227.78;10419441;28;20054;-69
2023/05/29 02:01:11;;;;;;;4.33;3.90;;;;;;;10.78;78.08;100221.75;10420214;28;20577;-69
2023/05/29 02:06:13;;;;;;;5.88;4.22;;;;;;;10.56;79.19;100232.88;10420537;28;20069;-69
2023/05/29 02:11:15;;;;;;;4.40;3.95;;;;;;;10.46;79.93;100226.19;10418097;28;20107;-69
2023/05/29 02:16:20;;;;;;;4.82;4.03;;;;;;;10.27;80.34;100232.84;10418874;28;20038;-68
2023/05/29 02:21:22;;;;;;;4.45;4.05;;;;;;;10.11;82.05;100230.59;10417141;28;20528;-69
2023/05/29 02:26:24;;;;;;;4.28;3.75;;;;;;;10.09;82.15;100234.16;10417887;28;20041;-69
2023/05/29 02:31:26;;;;;;;5.22;4.57;;;;;;;10.18;81.40;100235.69;10416954;28;20049;-69
2023/05/29 02:36:28;;;;;;;4.88;4.13;;;;;;;10.22;81.29;100240.81;10417686;28;20045;-69
2023/05/29 02:41:32;;;;;;;4.97;4.00;;;;;;;10.00;82.21;100253.66;10417482;28;20053;-69
2023/05/29 02:46:33;;;;;;;5.68;4.20;;;;;;;9.95;83.21;100258.16;10416552;28;20049;-69
2023/05/29 02:51:35;;;;;;;5.18;3.63;;;;;;;10.00;82.34;100261.53;10415627;28;20503;-69
2023/05/29 02:56:37;;;;;;;7.20;3.53;;;;;;;9.84;83.06;100278.59;10418512;28;20499;-69
2023/05/29 03:01:39;;;;;;;5.10;4.60;;;;;;;9.66;84.95;100285.16;10415582;28;20045;-69
2023/05/29 03:06:41;;;;;;;5.30;4.80;;;;;;;9.51;84.62;100286.34;10399495;28;20042;-69
2023/05/29 03:11:44;;;;;;;5.30;4.72;;;;;;;9.54;85.14;100296.78;10416971;28;20046;-69
2023/05/29 03:16:46;;;;;;;5.32;4.38;;;;;;;9.57;86.08;100298.50;10416929;28;20041;-69
2023/05/29 03:21:48;;;;;;;5.47;4.97;;;;;;;9.96;84.81;100304.56;10415525;28;20115;-69
2023/05/29 03:26:51;;;;;;;5.35;4.85;;;;;;;10.13;84.55;100297.97;10414771;28;20507;-69
2023/05/29 03:31:53;;;;;;;8.38;4.97;;;;;;;9.88;86.40;100295.13;10416922;28;20487;-69
2023/05/29 03:37:00;;;;;;;7.10;4.93;;;;;;;9.82;87.08;100291.72;10414663;28;20045;-69
2023/05/29 03:42:04;;;;;;;7.05;5.35;;;;;;;9.70;88.40;100286.81;10416482;28;20033;-68
2023/05/29 03:47:08;;;;;;;5.45;4.93;;;;;;;9.82;88.59;100293.50;10414199;28;20056;-68
2023/05/29 03:52:11;;;;;;;7.60;4.80;;;;;;;10.18;86.65;100302.25;10414825;28;20514;-70
2023/05/29 03:57:13;;;;;;;6.90;4.97;;;;;;;10.27;85.73;100301.13;10420510;28;20498;-70
2023/05/29 04:02:15;;;;;;;5.28;4.80;;;;;;;10.35;85.95;100307.91;10423664;28;20056;-70
2023/05/29 04:07:21;;;;;;;6.22;5.65;;;;;;;10.28;87.26;100316.03;10422193;28;20044;-70
2023/05/29 04:12:23;;;;;;;6.38;5.60;;;;;;;10.17;88.62;100312.75;10421992;28;20048;-70
2023/05/29 04:17:26;;;;;;;4.80;4.40;;;;;;;10.20;89.61;100328.47;10440583;22;20080;-71
2023/05/29 04:22:28;;;;;;;5.47;4.97;;;;;;;10.47;88.94;100324.28;10431353;28;20145;-72
2023/05/29 04:27:32;;;;;;;6.18;5.30;;;;;;;10.73;86.23;100321.81;10434686;28;20048;-73
2023/05/29 04:32:36;;;;;;;4.65;4.25;;;;;;;10.82;86.26;100323.31;10428937;28;20053;-71
2023/05/29 04:37:39;;;;;;;5.47;4.97;;;;;;;10.91;85.39;100322.19;10432472;28;20444;-72
2023/05/29 04:42:44;;;;;;;5.70;5.18;;;;;;;11.01;84.47;100327.13;10429459;28;20072;-72
2023/05/29 04:47:46;;;;;;;6.45;5.95;;;;;;;11.54;81.19;100340.47;10409874;28;20049;-71
2023/05/29 04:52:50;;;;;;;5.45;4.97;;;;;;;11.80;78.44;100344.06;10425566;28;20037;-72
2023/05/29 04:57:53;;;;;;;5.93;5.40;;;;;;;12.08;76.57;100344.03;10410207;28;20064;-72
2023/05/29 05:02:56;;;;;;;5.85;5.35;;;;;;;12.40;74.08;100340.34;10425244;28;20045;-71
2023/05/29 05:07:58;;;;;;;9.38;5.43;;;;;;;12.14;74.85;100341.22;10409069;28;20446;-72
2023/05/29 05:13:02;;;;;;;4.80;3.75;;;;;;;12.24;74.00;100341.78;10426233;28;20050;-71
2023/05/29 05:18:05;;;;;;;6.28;4.43;;;;;;;12.49;72.70;100345.31;10425156;28;20053;-71
2023/05/29 05:23:10;;;;;;;5.13;4.63;;;;;;;12.45;70.39;100346.31;10427480;28;20045;-71
2023/05/29 05:28:13;;;;;;;4.82;3.85;;;;;;;12.99;68.86;100344.41;10421159;28;20053;-71
2023/05/29 05:33:15;;;;;;;4.13;3.72;;;;;;;13.56;65.51;100349.28;10420324;28;20049;-71
2023/05/29 05:38:17;;;;;;;4.82;3.88;;;;;;;13.97;64.03;100353.84;10420108;28;20045;-71
2023/05/29 05:43:21;;;;;;;3.67;3.38;;;;;;;14.49;61.91;100347.28;10420790;28;20140;-71
2023/05/29 05:48:40;;;;;;;4.18;3.78;;;;;;;15.18;59.44;100348.66;10421920;28;20132;-72
2023/05/29 05:53:43;;;;;;;3.88;3.47;;;;;;;15.35;57.81;100346.09;10422734;28;20077;-72
2023/05/29 05:58:45;;;;;;;3.40;3.10;;;;;;;16.61;53.86;100352.28;10422341;28;20171;-71
2023/05/29 06:03:47;;;;;;;3.60;3.05;;;;;;;16.59;54.37;100353.28;10422572;28;20411;-72
2023/05/29 06:08:50;;;;;;;4.13;3.72;;;;;;;17.10;52.31;100354.19;10425614;28;20073;-73
2023/05/29 06:13:52;;;;;;;4.95;3.50;;;;;;;17.12;52.33;100366.44;10425886;28;20053;-73
2023/05/29 06:19:02;;;;;;;3.55;3.10;;;;;;;17.93;52.77;100363.81;10424830;28;20053;-72
2023/05/29 06:24:10;;;;;;;3.47;3.13;;;;;;;18.25;50.06;100356.63;10422773;28;20056;-73
2023/05/29 06:29:12;;;;;;;5.65;3.90;;;;;;;18.49;48.51;100367.59;10420010;28;20041;-73
2023/05/29 06:34:14;;;;;;;7.10;3.72;;;;;;;18.22;49.55;100371.91;10420114;28;20053;-71
2023/05/29 06:39:17;;;;;;;3.65;3.30;;;;;;;18.94;46.42;100376.47;10419990;28;20037;-73
2023/05/29 06:44:19;;;;;;;4.00;3.70;;;;;;;19.05;46.34;100374.03;10419910;28;20041;-72
2023/05/29 06:49:22;;;;;;;3.65;3.28;;;;;;;19.12;46.52;100379.81;10420318;28;20167;-72
2023/05/29 06:54:24;;;;;;;3.22;3.00;;;;;;;19.30;46.07;100375.16;10420160;28;20052;-73
2023/05/29 06:59:26;;;;;;;5.05;3.33;;;;;;;20.06;43.49;100382.78;10418833;28;20068;-72
2023/05/29 07:04:28;;;;;;;3.25;2.75;;;;;;;20.19;43.29;100385.47;10418173;28;20469;-72
2023/05/29 07:09:31;;;;;;;4.03;3.05;;;;;;;20.54;40.35;100397.38;10417385;28;20136;-73
2023/05/29 07:14:33;;;;;;;3.80;3.50;;;;;;;20.39;41.00;100396.53;10418273;28;20045;-73
2023/05/29 07:19:36;;;;;;;4.43;4.00;;;;;;;20.49;41.70;100398.63;10421892;28;20133;-72
2023/05/29 07:24:40;;;;;;;4.88;4.30;;;;;;;20.25;42.67;100396.59;10421837;28;20053;-72
2023/05/29 07:29:43;;;;;;;4.13;2.97;;;;;;;21.24;39.99;100404.16;10419523;28;20124;-72
2023/05/29 07:34:45;;;;;;;10.80;3.45;;;;;;;21.38;39.66;100412.97;10379471;28;20042;-73
2023/05/29 07:39:49;;;;;;;3.75;3.42;;;;;;;21.31;38.23;100406.31;10394145;28;20503;-71
2023/05/29 07:45:11;;;;;;;5.28;3.33;;;;;;;21.25;40.20;100416.53;10380850;28;20046;-71
2023/05/29 07:50:14;;;;;;;4.00;3.58;;;;;;;21.62;40.91;100417.53;10378981;28;20084;-72
2023/05/29 07:55:16;;;;;;;4.38;3.53;;;;;;;21.73;39.88;100417.59;10396138;28;20053;-71
2023/05/29 08:00:19;;;;;;;6.80;4.25;;;;;;;21.41;40.59;100422.56;10379118;28;20100;-71
2023/05/29 08:05:21;;;;;;;4.72;3.80;;;;;;;21.66;39.90;100414.50;10379663;28;20565;-71
2023/05/29 08:10:25;;;;;;;4.95;3.40;;;;;;;21.89;40.16;100409.31;10379617;28;20049;-70
2023/05/29 08:15:27;;;;;;;4.20;3.80;;;;;;;22.05;41.72;100412.59;10395159;28;20042;-71
2023/05/29 08:20:29;;;;;;;4.13;2.90;;;;;;;22.16;38.51;100411.81;10398033;28;20542;-70
2023/05/29 08:25:31;;;;;;;3.97;3.20;;;;;;;22.92;38.46;100416.75;10429897;28;20045;-71
2023/05/29 08:30:34;;;;;;;4.38;2.97;;;;;;;22.74;39.19;100409.25;10454194;28;20038;-71
2023/05/29 08:35:36;;;;;;;6.80;2.70;;;;;;;22.79;38.21;100412.44;10422960;28;20067;-73
2023/05/29 08:40:38;;;;;;;3.75;2.15;;;;;;;22.80;36.62;100404.28;10444024;28;20486;-71
2023/05/29 08:45:43;;;;;;;4.45;2.20;;;;;;;22.85;37.42;100398.56;10468188;28;20541;-72
2023/05/29 08:50:46;;;;;;;4.18;2.20;;;;;;;23.17;36.12;100410.34;10469914;28;20048;-72
2023/05/29 08:55:52;;;;;;;2.95;1.92;;;;;;;23.20;35.33;100395.84;10462286;28;20080;-72
2023/05/29 09:00:55;;;;;;;2.42;1.88;;;;;;;23.60;35.97;100396.22;10408172;28;20061;-72
2023/05/29 09:06:03;;;;;;;2.33;1.58;;;;;;;24.07;31.32;100404.09;10407185;28;20626;-71
2023/05/29 09:11:05;;;;;;;2.08;1.73;;;;;;;24.47;32.38;100404.34;10423177;28;20128;-73
2023/05/29 09:16:07;;;;;;;4.05;2.20;;;;;;;24.73;29.76;100406.66;10420825;28;20049;-72
2023/05/29 09:21:09;;;;;;;3.58;1.83;;;;;;;24.70;31.54;100417.66;10422076;28;20045;-71
2023/05/29 09:26:14;;;;;;;5.13;1.73;;;;;;;24.75;31.54;100407.41;10424435;28;20048;-71
2023/05/29 09:31:21;;;;;;;1.98;1.60;;;;;;;25.51;32.26;100414.22;10423058;28;20434;-72
2023/05/29 09:36:23;;;;;;;2.83;2.10;;;;;;;24.78;31.32;100410.66;10423594;28;20480;-73
2023/05/29 09:41:25;;;;;;;3.80;1.80;;;;;;;25.21;30.98;100406.16;10421978;28;20039;-72
2023/05/29 09:46:27;;;;;;;3.35;1.52;;;;;;;25.55;31.11;100423.75;10420485;28;20056;-72
2023/05/29 09:51:30;;;;;;;3.13;1.58;;;;;;;25.32;31.55;100414.13;10420922;28;20059;-73
2023/05/29 09:56:32;;;;;;;2.90;1.70;;;;;;;25.52;30.77;100407.84;10420978;28;20049;-71
2023/05/29 10:01:35;;;;;;;2.63;1.63;;;;;;;25.97;30.15;100403.91;10420527;28;20479;-70
2023/05/29 10:06:41;;;;;;;1.98;1.77;;;;;;;25.98;29.20;100392.97;10421455;28;20045;-71
2023/05/29 10:11:47;;;;;;;2.80;1.40;;;;;;;26.22;27.88;100391.75;10421244;28;20042;-71
2023/05/29 10:16:52;;;;;;;3.70;1.63;;;;;;;26.49;29.25;100410.78;10431712;23;20401;-71
2023/05/29 10:21:56;;;;;;;3.00;1.60;;;;;;;26.57;27.90;100410.94;10434401;28;20045;-70
2023/05/29 10:26:58;;;;;;;3.10;2.05;;;;;;;25.86;28.64;100396.81;10417692;28;20045;-71
2023/05/29 10:32:21;;;;;;;2.33;1.83;;;;;;;25.93;29.06;100392.53;10418999;28;20439;-71
2023/05/29 10:37:29;;;;;;;2.25;1.60;;;;;;;25.54;29.14;100391.56;10416197;28;20562;-70
2023/05/29 10:42:44;;;;;;;5.68;1.55;;;;;;;25.66;29.86;100385.94;10418070;28;20470;-71
2023/05/29 10:47:50;;;;;;;5.30;2.00;;;;;;;25.48;29.50;100382.19;10415608;28;20041;-70
2023/05/29 10:52:52;;;;;;;2.33;1.42;;;;;;;25.99;29.34;100380.38;10417041;28;20046;-70
2023/05/29 10:57:54;;;;;;;3.10;2.17;;;;;;;26.00;29.23;100379.38;10416885;28;20136;-71
2023/05/29 11:02:56;;;;;;;2.88;2.00;;;;;;;26.01;28.68;100383.78;10415918;28;20077;-71
2023/05/29 11:08:05;;;;;;;3.67;1.95;;;;;;;26.37;29.65;100375.00;10416105;28;20060;-70
2023/05/29 11:13:07;;;;;;;3.45;2.00;;;;;;;27.16;29.08;100365.84;10416446;28;20461;-70
2023/05/29 11:18:11;;;;;;;3.17;1.92;;;;;;;25.37;30.71;100372.38;10414677;28;20045;-71
2023/05/29 11:23:17;;;;;;;2.45;1.73;;;;;;;24.74;31.43;100371.56;10415858;28;20041;-71
2023/05/29 11:28:19;;;;;;;;;;;;;;;24.59;31.37;100363.00;10415596;28;20041;-71
2023/05/29 11:33:27;;;;;;;2.75;2.00;;;;;;;25.13;32.32;100366.47;10415762;28;19975;-71
2023/05/29 11:38:29;;;;;;;2.60;1.60;;;;;;;26.22;30.06;100362.13;10415283;28;20116;-71
2023/05/29 11:43:31;;;;;;;3.30;1.75;;;;;;;26.28;29.82;100353.44;10416209;28;20046;-71
2023/05/29 11:48:33;;;;;;;1.80;1.60;;;;;;;26.33;29.74;100368.19;10416077;28;20088;-71
2023/05/29 11:53:34;;;;;;;1.60;1.30;;;;;;;26.08;29.07;100361.53;10414878;28;20570;-71
2023/05/29 11:58:40;;;;;;;2.83;2.00;;;;;;;26.16;29.37;100355.44;10415030;28;20041;-71
2023/05/29 12:03:42;;;;;;;;;;;;;;;26.01;28.53;100355.00;10415924;28;20052;-71
2023/05/29 12:08:44;;;;;;;2.40;1.45;;;;;;;26.41;28.93;100357.56;10414969;28;19928;-71
2023/05/29 12:13:55;;;;;;;2.17;1.85;;;;;;;26.27;28.94;100351.75;10414564;28;20120;-71
2023/05/29 12:18:57;;;;;;;2.20;1.60;;;;;;;25.76;29.15;100342.03;10421797;28;20041;-71
2023/05/29 12:23:59;;;;;;;3.42;1.85;;;;;;;25.60;30.21;100347.94;10421453;28;20107;-71
2023/05/29 12:29:05;;;;;;;4.72;2.13;;;;;;;25.78;29.06;100340.94;10422245;28;20042;-71
2023/05/29 12:34:14;;;;;;;2.95;1.90;;;;;;;25.98;29.32;100340.94;10423041;28;20072;-70
2023/05/29 12:39:16;;;;;;;2.55;1.58;;;;;;;25.97;28.17;100332.03;10421976;28;20060;-70
2023/05/29 12:44:18;;;;;;;1.95;1.63;;;;;;;25.93;29.60;100325.22;10422377;28;20041;-70
2023/05/29 12:49:20;;;;;;;3.03;2.00;;;;;;;25.25;29.59;100326.88;10422737;28;20048;-70
2023/05/29 12:54:22;;;;;;;2.38;1.70;;;;;;;26.13;28.42;100329.63;10420953;28;20049;-71
2023/05/29 12:59:24;;;;;;;3.42;2.20;;;;;;;26.61;27.58;100327.94;10421322;28;20112;-70
2023/05/29 13:04:26;;;;;;;5.03;2.00;;;;;;;26.53;28.28;100319.72;10421015;28;20050;-71
2023/05/29 13:09:28;;;;;;;4.47;2.25;;;;;;;25.90;28.54;100314.75;10402944;28;20045;-71
2023/05/29 13:14:29;;;;;;;2.70;1.98;;;;;;;25.09;29.86;100312.06;10420839;28;20120;-71
2023/05/29 13:19:31;;;;;;;3.95;2.10;;;;;;;24.54;31.17;100310.63;10420488;28;20045;-71
2023/05/29 13:24:33;;;;;;;2.88;1.92;;;;;;;24.17;31.30;100311.00;10420692;28;20104;-71
2023/05/29 13:29:35;;;;;;;2.60;1.80;;;;;;;24.65;30.37;100307.84;10419406;28;20038;-71
2023/05/29 13:34:37;;;;;;;3.22;2.22;;;;;;;25.25;29.47;100294.59;10418296;28;20048;-71
2023/05/29 13:39:38;;;;;;;2.83;1.92;;;;;;;25.58;31.88;100293.38;10420590;28;20124;-71
2023/05/29 13:44:40;;;;;;;3.42;2.10;;;;;;;25.19;30.85;100295.13;10418276;28;20045;-71
2023/05/29 13:49:42;;;;;;;4.13;2.45;;;;;;;25.08;31.16;100290.69;10419172;28;20037;-71
2023/05/29 13:54:44;;;;;;;2.55;2.10;;;;;;;25.00;30.86;100294.03;10418596;28;20049;-71
2023/05/29 13:59:46;;;;;;;3.40;2.08;;;;;;;24.91;30.38;100290.31;10419345;28;20073;-72
2023/05/29 14:04:48;;;;;;;2.88;1.90;;;;;;;24.99;30.62;100288.78;10417245;28;20049;-71
2023/05/29 14:09:50;;;;;;;3.75;2.35;;;;;;;25.23;30.17;100292.00;10418596;28;20041;-71
2023/05/29 14:14:52;;;;;;;5.07;2.60;;;;;;;24.26;31.86;100290.59;10418240;28;20057;-72
2023/05/29 14:19:54;;;;;;;3.83;2.95;;;;;;;24.29;32.11;100291.19;10416696;28;20041;-71
2023/05/29 14:24:59;;;;;;;3.58;2.33;;;;;;;23.96;32.28;100292.22;10417789;28;20045;-71
2023/05/29 14:30:00;;;;;;;2.88;2.08;;;;;;;23.88;32.30;100286.63;10416303;28;20132;-71
2023/05/29 14:35:02;;;;;;;3.13;2.20;;;;;;;23.46;33.52;100286.44;10417827;28;20473;-71
2023/05/29 14:40:05;;;;;;;3.05;1.92;;;;;;;23.22;33.82;100291.97;10417233;28;20120;-71
2023/05/29 14:45:07;;;;;;;2.97;2.05;;;;;;;23.41;33.36;100284.16;10417669;28;20053;-71
2023/05/29 14:50:09;;;;;;;3.83;2.13;;;;;;;23.84;32.61;100290.53;10417182;28;20065;-70
2023/05/29 14:55:11;;;;;;;2.80;2.05;;;;;;;24.30;31.22;100297.41;10416878;28;20051;-71
2023/05/29 15:00:14;;;;;;;2.38;2.15;;;;;;;23.83;32.76;100286.16;10417330;28;20045;-71
2023/05/29 15:05:18;;;;;;;3.35;2.25;;;;;;;23.64;33.34;100279.63;10416756;28;20045;-72
2023/05/29 15:10:21;;;;;;;3.53;2.42;;;;;;;24.07;32.16;100288.59;10415726;28;20034;-70
2023/05/29 15:15:26;;;;;;;3.55;2.78;;;;;;;23.92;32.07;100288.06;10414145;28;20103;-70
2023/05/29 15:20:47;;;;;;;2.43;2.20;;;;;;;23.66;32.60;100283.03;10416752;28;20099;-69
2023/05/29 15:25:50;;;;;;;4.72;2.03;;;;;;;23.44;33.08;100277.69;10414073;28;20052;-70
2023/05/29 15:30:51;;;;;;;3.97;2.67;;;;;;;23.76;33.42;100271.53;10415892;28;20038;-70
2023/05/29 15:35:53;;;;;;;5.90;2.00;;;;;;;24.28;32.81;100273.38;10415435;28;20116;-70
2023/05/29 15:40:55;;;;;;;3.05;2.38;;;;;;;25.52;31.18;100269.72;10414991;28;20041;-70
2023/05/29 15:45:57;;;;;;;2.20;1.90;;;;;;;25.29;30.88;100274.50;10415781;28;20454;-70
2023/05/29 15:51:00;;;;;;;2.47;2.03;;;;;;;25.13;31.02;100267.78;10416233;28;20429;-71
2023/05/29 15:56:02;;;;;;;2.80;2.38;;;;;;;24.75;31.60;100265.78;10423567;28;20060;-71
2023/05/29 16:01:04;;;;;;;3.75;2.30;;;;;;;24.80;31.21;100276.13;10423445;28;20363;-71
2023/05/29 16:06:06;;;;;;;4.00;2.60;;;;;;;24.52;30.99;100269.59;10422746;28;20046;-71
2023/05/29 16:11:07;;;;;;;2.63;2.28;;;;;;;24.28;31.93;100273.38;10422953;28;20041;-71
2023/05/29 16:21:44;;;;;;;2.97;2.13;;;;;;;23.65;32.34;100275.13;10384109;28;20120;-69
2023/05/29 16:26:46;;;;;;;3.00;2.35;;;;;;;23.66;33.41;100274.13;10383690;28;20060;-70
2023/05/29 16:31:49;;;;;;;2.40;2.17;;;;;;;23.39;33.32;100274.53;10383001;28;20049;-70
2023/05/29 16:36:50;;;;;;;4.25;2.42;;;;;;;22.99;34.27;100275.06;10385666;28;20050;-71
2023/05/29 16:41:52;;;;;;;3.75;1.95;;;;;;;23.05;33.74;100281.75;10384335;28;20562;-70
2023/05/29 16:46:54;;;;;;;3.40;2.30;;;;;;;22.75;34.43;100279.63;10384635;28;20525;-71
2023/05/29 16:51:56;;;;;;;8.00;2.65;;;;;;;22.56;34.97;100278.41;10389137;28;20048;-71
2023/05/29 16:56:58;;;;;;;2.58;2.17;;;;;;;22.20;35.94;100283.94;10383698;28;20052;-71
2023/05/29 17:02:00;;;;;;;2.83;1.90;;;;;;;21.80;35.73;100281.53;10386248;28;20044;-73
2023/05/29 17:07:03;;;;;;;2.65;2.33;;;;;;;21.75;36.42;100279.22;10385241;28;20038;-72
2023/05/29 17:12:06;;;;;;;5.75;2.60;;;;;;;21.55;36.58;100280.66;10385399;28;20092;-71
2023/05/29 17:17:09;;;;;;;2.97;2.33;;;;;;;21.45;36.55;100284.16;10384457;28;20446;-73
2023/05/29 17:22:11;;;;;;;3.40;2.30;;;;;;;21.55;36.30;100291.38;10397943;28;20046;-73
2023/05/29 17:27:13;;;;;;;4.35;2.28;;;;;;;21.26;36.30;100287.28;10397713;28;20052;-72
2023/05/29 17:32:15;;;;;;;3.40;2.40;;;;;;;21.10;37.19;100280.34;10381793;28;20053;-72
2023/05/29 17:37:17;;;;;;;3.38;2.10;;;;;;;21.08;37.18;100278.75;10381996;28;20097;-72
2023/05/29 17:42:19;;;;;;;2.42;2.13;;;;;;;20.99;36.73;100285.63;10380239;28;20498;-73
2023/05/29 17:47:21;;;;;;;2.30;1.98;;;;;;;21.07;36.99;100293.06;10381670;28;20432;-71
2023/05/29 17:52:23;;;;;;;3.15;2.03;;;;;;;21.07;37.23;100295.75;10382216;28;20088;-72
2023/05/29 17:57:26;;;;;;;3.88;2.38;;;;;;;20.85;37.69;100299.06;10378993;28;20046;-72
2023/05/29 18:02:27;;;;;;;3.28;1.77;;;;;;;20.77;39.52;100314.81;10382341;28;20502;-72
2023/05/29 18:07:29;;;;;;;3.47;2.30;;;;;;;20.62;39.30;100317.56;10382002;28;20046;-71
2023/05/29 18:12:32;;;;;;;4.38;2.15;;;;;;;20.59;39.50;100311.59;10427376;28;20049;-72
2023/05/29 18:17:46;;;;;;;3.55;2.20;;;;;;;20.44;39.79;100312.59;10420407;28;20068;-72
2023/05/29 18:22:48;;;;;;;3.03;2.10;;;;;;;20.51;39.74;100321.94;10435402;28;20034;-72
2023/05/29 18:27:50;;;;;;;3.75;2.25;;;;;;;20.28;40.37;100320.81;10419545;28;20129;-71
2023/05/29 18:32:53;;;;;;;3.15;2.63;;;;;;;20.14;40.70;100330.59;10418338;28;20045;-71
2023/05/29 18:37:55;;;;;;;3.47;2.05;;;;;;;19.98;40.87;100337.06;10419034;28;20049;-72
2023/05/29 18:42:57;;;;;;;2.92;2.25;;;;;;;19.79;41.77;100335.59;10417799;28;20048;-72
2023/05/29 18:47:59;;;;;;;3.13;2.28;;;;;;;19.65;42.42;100336.47;10418052;28;20487;-73
2023/05/29 18:53:00;;;;;;;3.70;2.63;;;;;;;19.50;42.75;100344.59;10419093;28;20449;-73
2023/05/29 18:58:02;;;;;;;5.85;3.78;;;;;;;19.42;43.02;100342.41;10417759;28;20051;-72
2023/05/29 19:03:05;;;;;;;4.15;3.30;;;;;;;19.28;43.50;100350.41;10433323;28;20049;-72
2023/05/29 19:08:07;;;;;;;3.92;3.25;;;;;;;19.23;44.17;100348.03;10418312;28;20065;-72
2023/05/29 19:13:10;;;;;;;3.60;3.30;;;;;;;19.09;44.61;100361.38;10418267;28;20400;-72
2023/05/29 19:18:11;;;;;;;4.78;3.22;;;;;;;19.13;44.46;100354.91;10417772;28;20072;-71
2023/05/29 19:23:13;;;;;;;3.13;2.83;;;;;;;18.92;44.66;100353.56;10416971;28;20406;-72
2023/05/29 19:28:15;;;;;;;3.15;2.45;;;;;;;18.77;44.90;100360.66;10416080;28;20079;-72
2023/05/29 19:33:17;;;;;;;3.58;2.83;;;;;;;18.46;46.01;100367.81;10416666;28;20041;-71
2023/05/29 19:38:19;;;;;;;5.35;2.35;;;;;;;18.31;46.82;100374.88;10417483;28;20042;-71
2023/05/29 19:43:22;;;;;;;2.47;1.90;;;;;;;18.26;47.04;100381.41;10417344;28;20053;-74
2023/05/29 19:48:23;;;;;;;3.05;2.15;;;;;;;18.45;46.13;100392.69;10417091;28;20453;-74
2023/05/29 19:53:25;;;;;;;3.25;2.42;;;;;;;18.42;45.91;100398.22;10416503;28;20487;-73
2023/05/29 19:58:27;;;;;;;3.58;2.78;;;;;;;18.27;47.05;100407.94;10416004;28;20551;-74
2023/05/29 20:03:31;;;;;;;3.55;2.45;;;;;;;18.09;46.99;100404.53;10416573;28;20045;-74
2023/05/29 20:08:35;;;;;;;4.55;2.35;;;;;;;18.01;47.38;100408.56;10416106;28;20037;-74
2023/05/29 20:13:37;;;;;;;3.47;2.60;;;;;;;17.96;47.10;100405.31;10416562;28;20060;-75
2023/05/29 20:18:38;;;;;;;4.05;3.30;;;;;;;17.86;47.38;100412.94;10417400;28;20386;-74
2023/05/29 20:23:40;;;;;;;6.22;3.53;;;;;;;17.81;47.78;100423.00;10417127;28;20461;-74
2023/05/29 20:28:42;;;;;;;3.97;3.45;;;;;;;17.72;47.97;100426.13;10418266;28;20387;-75
2023/05/29 20:33:44;;;;;;;4.28;3.00;;;;;;;17.75;47.28;100421.53;10416993;28;20491;-73
2023/05/29 20:38:46;;;;;;;3.92;3.50;;;;;;;17.77;47.42;100424.09;10421553;28;20041;-74
2023/05/29 20:43:51;;;;;;;3.38;2.90;;;;;;;17.55;47.73;100435.03;10425207;28;20076;-74
2023/05/29 20:48:52;;;;;;;4.95;2.60;;;;;;;17.33;48.71;100437.97;10425255;28;20044;-74
2023/05/29 20:53:54;;;;;;;5.88;2.55;;;;;;;17.53;47.42;100428.91;10425259;28;20077;-75
2023/05/29 20:58:56;;;;;;;3.50;2.30;;;;;;;17.47;47.56;100434.56;10424514;28;20128;-74
2023/05/29 21:03:59;;;;;;;3.42;2.47;;;;;;;17.47;47.63;100439.88;10438236;28;20056;-75
2023/05/29 21:09:04;;;;;;;2.70;1.90;;;;;;;17.28;47.89;100442.69;10422696;28;20487;-74
2023/05/29 21:14:07;;;;;;;3.00;2.03;;;;;;;17.22;48.14;100435.00;10422902;28;20055;-74
2023/05/29 21:19:08;;;;;;;3.22;2.00;;;;;;;17.02;48.32;100438.72;10437395;28;20079;-74
2023/05/29 21:24:11;;;;;;;2.67;1.60;;;;;;;17.06;48.71;100434.97;10405116;28;20561;-74
2023/05/29 21:29:13;;;;;;;4.00;1.85;;;;;;;17.19;47.44;100445.81;10421674;28;20041;-74
2023/05/29 21:34:15;;;;;;;4.80;2.20;;;;;;;16.88;47.66;100447.41;10420475;28;20112;-74
2023/05/29 21:39:17;;;;;;;3.72;2.05;;;;;;;16.90;47.34;100448.19;10423319;28;20034;-74
2023/05/29 21:44:19;;;;;;;2.55;1.75;;;;;;;16.71;47.68;100458.00;10421892;28;20076;-74
2023/05/29 21:49:21;;;;;;;3.10;2.03;;;;;;;16.73;47.65;100462.28;10420803;28;20037;-75
2023/05/29 21:54:23;;;;;;;4.03;1.75;;;;;;;16.42;48.04;100462.06;10421347;28;20087;-74
2023/05/29 21:59:25;;;;;;;2.63;1.80;;;;;;;16.43;47.97;100454.06;10421479;28;20061;-74
2023/05/29 22:04:26;;;;;;;3.80;1.85;;;;;;;16.45;48.25;100457.47;10420244;28;20091;-74
2023/05/29 22:09:30;;;;;;;3.72;1.88;;;;;;;16.38;48.01;100464.03;10420379;28;20457;-74
2023/05/29 22:14:32;;;;;;;5.03;2.00;;;;;;;16.39;48.45;100465.75;10418734;28;20050;-74
2023/05/29 22:19:35;;;;;;;2.92;1.83;;;;;;;16.34;47.64;100467.78;10433677;22;20461;-69
2023/05/29 22:24:37;;;;;;;3.38;1.80;;;;;;;16.11;47.93;100472.41;10417387;28;20049;-70
2023/05/29 22:29:39;;;;;;;3.38;2.30;;;;;;;16.08;48.13;100475.19;10416871;28;20048;-70
2023/05/29 22:34:41;;;;;;;3.55;2.20;;;;;;;16.07;48.21;100473.47;10416957;28;20137;-72
2023/05/29 22:39:43;;;;;;;2.95;1.75;;;;;;;16.10;47.48;100470.66;10416834;28;20116;-70
2023/05/29 22:44:46;;;;;;;4.13;1.65;;;;;;;16.00;48.31;100471.19;10416386;28;20120;-70
2023/05/29 22:49:48;;;;;;;2.70;1.50;;;;;;;15.82;49.24;100471.09;10416108;28;20041;-70
2023/05/29 22:54:49;;;;;;;3.53;1.58;;;;;;;15.90;48.69;100470.75;10416200;28;20051;-69
2023/05/29 22:59:51;;;;;;;4.25;1.85;;;;;;;15.67;49.44;100476.25;10416307;28;20072;-70
2023/05/29 23:04:53;;;;;;;4.43;1.70;;;;;;;15.81;48.86;100474.69;10415668;28;20041;-70
2023/05/29 23:09:54;;;;;;;5.03;1.77;;;;;;;15.37;49.97;100476.69;10416173;28;20069;-69
2023/05/29 23:14:56;;;;;;;3.42;1.63;;;;;;;15.26;50.33;100489.53;10417424;28;20562;-70
2023/05/29 23:19:58;;;;;;;5.10;1.75;;;;;;;15.24;50.30;100478.16;10416832;28;20056;-69